createdAt,value
2024-01-16T00:01:10.551Z,-1.20
2024-01-16T00:03:39.764Z,-1.20
2024-01-16T00:06:08.902Z,-1.20
2024-01-16T00:08:36.481Z,-1.20
2024-01-16T00:11:04.826Z,-1.20
2024-01-16T00:13:34.608Z,-1.20
2024-01-16T00:16:05.254Z,-1.20
2024-01-16T00:18:33.405Z,-1.20
2024-01-16T00:21:03.841Z,-1.20
2024-01-16T00:23:34.121Z,-1.20
2024-01-16T00:26:01.898Z,-1.20
2024-01-16T00:28:29.478Z,-1.20
2024-01-16T00:30:57.005Z,-1.20
2024-01-16T00:33:24.722Z,-1.20
2024-01-16T00:35:52.588Z,-1.20
2024-01-16T00:38:20.222Z,-1.20
2024-01-16T00:40:47.791Z,-1.30
2024-01-16T00:43:15.476Z,-1.20
2024-01-16T00:45:42.964Z,-1.20
2024-01-16T00:48:11.915Z,-1.20
2024-01-16T00:50:39.905Z,-1.20
2024-01-16T00:53:07.536Z,-1.20
2024-01-16T00:55:35.025Z,-1.20
2024-01-16T00:58:02.548Z,-1.20
2024-01-16T01:00:32.337Z,-1.20
2024-01-16T01:03:05.032Z,-1.20
2024-01-16T01:05:32.816Z,-1.10
2024-01-16T01:08:00.423Z,-1.20
2024-01-16T01:10:28.095Z,-1.30
2024-01-16T01:12:55.802Z,-1.20
2024-01-16T01:15:23.651Z,-1.20
2024-01-16T01:17:52.275Z,-1.30
2024-01-16T01:20:21.174Z,-1.40
2024-01-16T01:22:49.118Z,-1.40
2024-01-16T01:25:17.063Z,-1.60
2024-01-16T01:27:44.631Z,-1.50
2024-01-16T01:30:12.969Z,-1.40
2024-01-16T01:32:41.410Z,-1.40
2024-01-16T01:35:09.374Z,-1.50
2024-01-16T01:37:37.015Z,-1.50
2024-01-16T01:40:06.782Z,-1.60
2024-01-16T01:42:34.297Z,-1.50
2024-01-16T01:45:01.839Z,-1.60
2024-01-16T01:47:31.235Z,-1.60
2024-01-16T01:49:58.956Z,-1.80
2024-01-16T01:52:26.580Z,-1.80
2024-01-16T01:54:54.145Z,-1.70
2024-01-16T01:57:21.735Z,-1.80
2024-01-16T01:59:49.420Z,-1.80
2024-01-16T02:02:18.575Z,-1.90
2024-01-16T02:04:48.180Z,-2.00
2024-01-16T02:07:17.238Z,-2.20
2024-01-16T02:09:45.610Z,-2.10
2024-01-16T02:12:13.336Z,-2.10
2024-01-16T02:14:41.010Z,-2.20
2024-01-16T02:17:09.001Z,-2.00
2024-01-16T02:19:36.798Z,-2.10
2024-01-16T02:22:10.949Z,-2.10
2024-01-16T02:24:38.507Z,-2.00
2024-01-16T02:27:06.460Z,-2.00
2024-01-16T02:29:34.096Z,-2.10
2024-01-16T02:32:01.590Z,-2.10
2024-01-16T02:34:29.270Z,-2.00
2024-01-16T02:36:56.778Z,-2.00
2024-01-16T02:39:24.403Z,-2.00
2024-01-16T02:41:52.221Z,-2.10
2024-01-16T02:44:19.761Z,-2.10
2024-01-16T02:46:47.328Z,-2.00
2024-01-16T02:49:15.236Z,-2.00
2024-01-16T02:51:42.831Z,-2.10
2024-01-16T02:54:10.445Z,-2.10
2024-01-16T02:56:37.975Z,-2.00
2024-01-16T02:59:05.650Z,-2.00
2024-01-16T03:01:33.146Z,-2.00
2024-01-16T03:04:00.748Z,-2.00
2024-01-16T03:06:30.203Z,-2.00
2024-01-16T03:08:58.308Z,-2.00
2024-01-16T03:11:26.121Z,-1.90
2024-01-16T03:13:54.570Z,-2.00
2024-01-16T03:16:23.173Z,-2.10
2024-01-16T03:18:50.765Z,-2.10
2024-01-16T03:21:18.370Z,-2.30
2024-01-16T03:23:45.986Z,-2.30
2024-01-16T03:26:15.453Z,-2.20
2024-01-16T03:28:43.755Z,-2.00
2024-01-16T03:31:11.422Z,-2.10
2024-01-16T03:33:43.979Z,-2.00
2024-01-16T03:41:13.524Z,-2.00
2024-01-16T03:43:42.052Z,-1.90
2024-01-16T03:46:12.309Z,-1.90
2024-01-16T03:48:40.724Z,-1.80
2024-01-16T03:51:08.361Z,-1.90
2024-01-16T04:05:55.824Z,-2.00
2024-01-16T04:08:23.344Z,-2.00
2024-01-16T04:10:50.839Z,-2.00
2024-01-16T04:13:19.076Z,-2.00
2024-01-16T04:15:46.668Z,-2.10
2024-01-16T04:18:14.342Z,-2.10
2024-01-16T04:20:42.124Z,-2.10
2024-01-16T04:23:09.751Z,-2.10
2024-01-16T04:25:37.256Z,-2.10
2024-01-16T04:28:04.971Z,-2.10
2024-01-16T04:30:32.584Z,-2.10
2024-01-16T04:33:00.583Z,-2.20
2024-01-16T04:35:28.239Z,-2.10
2024-01-16T04:37:55.723Z,-2.10
2024-01-16T04:40:23.315Z,-2.10
2024-01-16T04:42:50.855Z,-2.10
2024-01-16T04:45:18.321Z,-2.10
2024-01-16T04:47:46.074Z,-2.10
2024-01-16T04:50:13.744Z,-2.10
2024-01-16T04:52:41.300Z,-2.20
2024-01-16T04:55:08.944Z,-2.10
2024-01-16T04:57:36.722Z,-2.10
2024-01-16T05:00:08.431Z,-2.20
2024-01-16T05:02:36.186Z,-2.10
2024-01-16T05:05:04.001Z,-2.00
2024-01-16T05:07:31.759Z,-2.00
2024-01-16T05:09:59.425Z,-2.00
2024-01-16T05:12:27.124Z,-2.10
2024-01-16T05:14:54.712Z,-2.10
2024-01-16T05:17:22.532Z,-2.10
2024-01-16T05:19:50.134Z,-2.10
2024-01-16T05:22:18.192Z,-2.10
2024-01-16T05:24:46.118Z,-2.10
2024-01-16T05:27:13.694Z,-2.10
2024-01-16T05:29:44.462Z,-2.10
2024-01-16T05:32:13.323Z,-2.10
2024-01-16T05:34:41.218Z,-2.20
2024-01-16T05:37:08.759Z,-2.20
2024-01-16T05:39:36.599Z,-2.10
2024-01-16T05:42:04.611Z,-2.10
2024-01-16T05:44:32.123Z,-2.10
2024-01-16T05:46:59.672Z,-2.20
2024-01-16T05:49:27.314Z,-2.10
2024-01-16T05:51:54.899Z,-2.10
2024-01-16T05:54:22.805Z,-2.20
2024-01-16T05:56:51.411Z,-2.30
2024-01-16T05:59:19.132Z,-2.40
2024-01-16T06:01:46.650Z,-2.40
2024-01-16T06:04:14.946Z,-2.50
2024-01-16T06:06:46.789Z,-2.60
2024-01-16T06:09:15.725Z,-2.60
2024-01-16T06:11:43.566Z,-2.60
2024-01-16T06:14:13.696Z,-2.70
2024-01-16T06:16:41.272Z,-2.70
2024-01-16T06:19:09.680Z,-2.60
2024-01-16T06:21:37.214Z,-2.70
2024-01-16T06:24:04.900Z,-2.60
2024-01-16T06:26:32.952Z,-2.70
2024-01-16T06:29:00.525Z,-2.70
2024-01-16T06:31:28.242Z,-2.70
2024-01-16T06:33:55.864Z,-2.80
2024-01-16T06:36:23.473Z,-2.80
2024-01-16T06:38:51.069Z,-2.90
2024-01-16T06:41:18.714Z,-3.10
2024-01-16T06:43:46.266Z,-3.20
2024-01-16T06:46:13.739Z,-3.40
2024-01-16T06:48:41.436Z,-3.70
2024-01-16T06:51:09.684Z,-3.70
2024-01-16T06:53:37.403Z,-3.90
2024-01-16T06:56:09.256Z,-3.90
2024-01-16T06:58:37.193Z,-3.90
2024-01-16T07:01:05.785Z,-3.80
2024-01-16T07:03:33.481Z,-3.70
2024-01-16T07:06:01.198Z,-3.80
2024-01-16T07:08:28.983Z,-3.80
2024-01-16T07:10:57.767Z,-3.70
2024-01-16T07:13:25.352Z,-3.50
2024-01-16T07:15:52.888Z,-3.20
2024-01-16T07:18:20.559Z,-3.10
2024-01-16T07:20:48.304Z,-3.00
2024-01-16T07:23:15.912Z,-2.90
2024-01-16T07:25:43.420Z,-2.80
2024-01-16T07:28:10.973Z,-2.80
2024-01-16T07:30:38.649Z,-2.70
2024-01-16T07:33:06.516Z,-2.70
2024-01-16T07:35:34.627Z,-2.70
2024-01-16T07:38:05.332Z,-2.70
2024-01-16T07:40:33.542Z,-2.90
2024-01-16T07:43:01.028Z,-2.80
2024-01-16T07:45:28.723Z,-2.80
2024-01-16T07:47:56.530Z,-2.70
2024-01-16T07:50:24.146Z,-2.50
2024-01-16T07:52:52.142Z,-2.30
2024-01-16T07:55:22.042Z,-2.20
2024-01-16T07:57:51.176Z,-2.10
2024-01-16T08:00:19.329Z,-1.90
2024-01-16T08:02:46.917Z,-2.10
2024-01-16T08:05:14.685Z,-1.80
2024-01-16T08:07:44.986Z,-1.80
2024-01-16T08:10:12.652Z,-1.80
2024-01-16T08:12:40.272Z,-1.70
2024-01-16T08:15:08.939Z,-1.60
2024-01-16T08:17:36.521Z,-1.60
2024-01-16T08:20:04.802Z,-1.60
2024-01-16T08:22:32.345Z,-1.60
2024-01-16T08:24:59.824Z,-1.50
2024-01-16T08:27:27.374Z,-1.40
2024-01-16T08:29:54.999Z,-1.40
2024-01-16T08:32:22.677Z,-1.30
2024-01-16T08:34:50.370Z,-1.30
2024-01-16T08:37:17.912Z,-1.50
2024-01-16T08:39:45.478Z,-1.50
2024-01-16T08:42:15.875Z,-1.30
2024-01-16T08:44:43.795Z,-1.20
2024-01-16T08:47:11.829Z,-1.10
2024-01-16T08:49:40.006Z,-1.10
2024-01-16T08:52:08.005Z,-1.10
2024-01-16T08:54:35.558Z,-1.20
2024-01-16T08:57:03.519Z,-1.30
2024-01-16T08:59:31.211Z,-1.10
2024-01-16T09:01:58.775Z,-1.00
2024-01-16T09:04:26.281Z,-1.00
2024-01-16T09:06:54.295Z,-1.10
2024-01-16T09:09:22.431Z,-1.10
2024-01-16T09:11:50.770Z,-0.80
2024-01-16T09:14:18.575Z,-0.90
2024-01-16T09:16:46.733Z,-0.80
2024-01-16T09:19:14.300Z,-0.60
2024-01-16T09:21:41.820Z,-0.50
2024-01-16T09:24:09.656Z,-0.80
2024-01-16T09:26:37.739Z,-0.90
2024-01-16T09:29:05.333Z,-0.90
2024-01-16T09:31:32.815Z,-0.60
2024-01-16T09:34:00.545Z,-0.70
2024-01-16T09:36:28.085Z,-0.90
2024-01-16T09:38:55.681Z,-1.10
2024-01-16T09:41:24.356Z,-1.00
2024-01-16T09:43:53.223Z,-1.10
2024-01-16T09:46:26.015Z,-1.00
2024-01-16T09:48:57.647Z,-0.90
2024-01-16T09:51:25.371Z,-0.90
2024-01-16T09:53:53.545Z,-1.10
2024-01-16T09:56:25.850Z,-1.30
2024-01-16T09:59:06.756Z,-1.30
2024-01-16T10:01:35.102Z,-1.30
2024-01-16T10:04:02.834Z,-1.30
2024-01-16T10:06:33.415Z,-1.00
2024-01-16T10:09:01.414Z,-1.00
2024-01-16T10:11:33.239Z,-1.10
2024-01-16T10:14:00.964Z,-1.40
2024-01-16T10:17:07.593Z,-1.30
2024-01-16T10:19:43.330Z,-1.20
2024-01-16T10:22:26.922Z,-1.30
2024-01-16T10:25:09.965Z,-1.10
2024-01-16T10:27:40.011Z,-0.90
2024-01-16T10:30:09.029Z,-1.00
2024-01-16T10:32:42.279Z,-0.90
2024-01-16T10:35:15.589Z,-0.80
2024-01-16T10:37:54.781Z,-0.80
2024-01-16T10:40:28.954Z,-0.60
2024-01-16T10:43:05.140Z,-0.60
2024-01-16T10:45:34.261Z,-0.50
2024-01-16T10:48:08.175Z,-0.40
2024-01-16T10:50:41.729Z,-0.30
2024-01-16T10:53:10.424Z,-0.40
2024-01-16T10:55:52.829Z,-0.50
2024-01-16T10:58:25.121Z,-0.50
2024-01-16T11:00:55.234Z,-0.70
2024-01-16T11:03:44.346Z,-0.50
2024-01-16T11:06:13.344Z,-0.10
2024-01-16T11:08:42.386Z,-0.10
2024-01-16T11:11:10.922Z,0.10
2024-01-16T11:13:39.536Z,-0.10
2024-01-16T11:16:08.757Z,-0.10
2024-01-16T11:18:36.796Z,-0.10
2024-01-16T11:21:11.174Z,0.10
2024-01-16T11:23:41.481Z,0.20
2024-01-16T11:26:35.535Z,0.30
2024-01-16T11:29:29.334Z,0.40
2024-01-16T11:34:56.138Z,0.80
2024-01-16T11:37:34.059Z,0.90
2024-01-16T11:40:22.081Z,0.50
2024-01-16T11:42:54.599Z,0.00
2024-01-16T11:45:31.463Z,-0.50
2024-01-16T11:48:15.818Z,-0.40
2024-01-16T11:50:44.661Z,-0.80
2024-01-16T11:53:12.390Z,-0.90
2024-01-16T11:56:45.865Z,-1.10
2024-01-16T11:59:38.844Z,-1.40
2024-01-16T12:02:19.877Z,-1.60
2024-01-16T12:04:56.516Z,-1.70
2024-01-16T12:07:25.095Z,-1.80
2024-01-16T12:09:52.595Z,-1.80
2024-01-16T12:12:22.417Z,-1.80
2024-01-16T12:14:54.951Z,-1.70
2024-01-16T12:17:22.770Z,-1.50
2024-01-16T12:19:51.049Z,-1.40
2024-01-16T12:22:19.901Z,-1.50
2024-01-16T12:24:47.545Z,-1.40
2024-01-16T12:27:15.820Z,-1.50
2024-01-16T12:29:43.871Z,-1.40
2024-01-16T12:32:17.647Z,-1.40
2024-01-16T12:34:51.525Z,-1.40
2024-01-16T12:37:19.082Z,-1.60
2024-01-16T12:39:46.623Z,-1.40
2024-01-16T12:42:15.853Z,-1.40
2024-01-16T12:44:43.527Z,-1.30
2024-01-16T12:47:11.206Z,-1.20
2024-01-16T12:49:46.193Z,-1.20
2024-01-16T12:52:26.938Z,-1.10
2024-01-16T12:55:06.354Z,-1.20
2024-01-16T12:57:33.954Z,-1.20
2024-01-16T13:00:05.797Z,-1.30
2024-01-16T13:02:34.966Z,-1.50
2024-01-16T13:05:05.057Z,-1.60
2024-01-16T13:07:34.745Z,-1.50
2024-01-16T13:10:20.667Z,-1.00
2024-01-16T13:12:48.996Z,-0.80
2024-01-16T13:15:18.590Z,-0.80
2024-01-16T13:17:46.883Z,-0.70
2024-01-16T13:20:16.211Z,-0.60
2024-01-16T13:22:46.620Z,-0.70
2024-01-16T13:25:16.537Z,-1.00
2024-01-16T13:27:44.206Z,-1.00
2024-01-16T13:30:13.899Z,-1.60
2024-01-16T13:32:42.146Z,-1.60
2024-01-16T13:35:10.481Z,-1.70
2024-01-16T13:37:42.460Z,-1.80
2024-01-16T13:40:17.019Z,-2.00
2024-01-16T13:42:44.788Z,-2.00
2024-01-16T13:45:14.978Z,-2.00
2024-01-16T13:47:43.206Z,-2.00
2024-01-16T13:50:11.566Z,-2.10
2024-01-16T13:52:41.685Z,-2.20
2024-01-16T13:55:10.049Z,-2.30
2024-01-16T13:57:38.008Z,-2.30
2024-01-16T14:00:08.193Z,-2.30
2024-01-16T14:02:38.561Z,-2.30
2024-01-16T14:05:12.019Z,-2.30
2024-01-16T14:07:40.147Z,-2.20
2024-01-16T14:10:13.568Z,-2.20
2024-01-16T14:12:46.207Z,-2.20
2024-01-16T14:15:19.998Z,-2.10
2024-01-16T14:17:53.802Z,-2.10
2024-01-16T14:20:27.570Z,-2.10
2024-01-16T14:22:56.679Z,-2.10
2024-01-16T14:25:24.496Z,-2.10
2024-01-16T14:28:07.712Z,-2.10
2024-01-16T14:30:38.185Z,-2.10
2024-01-16T14:33:08.523Z,-2.10
2024-01-16T14:35:36.207Z,-2.10
2024-01-16T14:38:03.932Z,-2.10
2024-01-16T14:40:32.600Z,-2.10
2024-01-16T14:43:00.633Z,-2.20
2024-01-16T14:45:28.585Z,-2.20
2024-01-16T14:47:56.360Z,-2.20
2024-01-16T14:50:25.780Z,-2.20
2024-01-16T14:52:53.952Z,-2.10
2024-01-16T14:55:21.821Z,-2.20
2024-01-16T14:57:54.531Z,-2.20
2024-01-16T15:00:24.476Z,-2.00
2024-01-16T15:02:52.183Z,-2.10
2024-01-16T15:05:24.308Z,-2.20
2024-01-16T15:07:55.247Z,-2.20
2024-01-16T15:10:22.948Z,-2.20
2024-01-16T15:12:50.503Z,-2.30
2024-01-16T15:15:18.255Z,-2.30
2024-01-16T15:17:46.490Z,-2.20
2024-01-16T15:20:14.543Z,-2.10
2024-01-16T15:22:46.784Z,-2.20
2024-01-16T15:25:17.116Z,-2.30
2024-01-16T15:27:46.829Z,-2.30
2024-01-16T15:30:15.955Z,-2.50
2024-01-16T15:32:43.883Z,-2.60
2024-01-16T15:35:12.663Z,-2.50
2024-01-16T15:37:40.551Z,-2.50
2024-01-16T15:40:09.438Z,-2.60
2024-01-16T15:42:40.154Z,-2.50
2024-01-16T15:45:10.836Z,-2.50
2024-01-16T15:47:38.870Z,-2.40
2024-01-16T15:50:07.394Z,-2.50
2024-01-16T15:52:35.545Z,-2.60
2024-01-16T15:55:03.152Z,-2.70
2024-01-16T16:04:55.396Z,-3.20
2024-01-16T16:07:25.643Z,-3.30
2024-01-16T16:09:55.273Z,-3.50
2024-01-16T16:12:22.836Z,-3.60
2024-01-16T16:14:50.602Z,-3.70
2024-01-16T16:17:18.241Z,-3.80
2024-01-16T16:19:47.795Z,-3.90
2024-01-16T16:22:15.455Z,-4.10
2024-01-16T17:36:53.632Z,-6.50
2024-01-16T17:39:22.597Z,-6.70
2024-01-16T17:41:50.238Z,-6.80
2024-01-16T17:44:20.102Z,-6.80
2024-01-16T17:46:47.704Z,-6.80
2024-01-16T17:49:15.819Z,-6.80
2024-01-16T17:51:48.012Z,-6.60
2024-01-16T17:54:17.113Z,-6.60
2024-01-16T17:56:49.549Z,-6.40
2024-01-16T17:59:17.534Z,-6.20
2024-01-16T18:01:45.108Z,-6.10
2024-01-16T18:04:14.597Z,-5.90
2024-01-16T18:06:44.585Z,-5.80
2024-01-16T18:09:12.310Z,-5.90
2024-01-16T18:12:00.382Z,-6.00
2024-01-16T18:14:29.047Z,-6.00
2024-01-16T18:16:56.698Z,-6.00
2024-01-16T18:19:27.846Z,-5.90
2024-01-16T18:21:56.818Z,-5.90
2024-01-16T18:24:24.450Z,-5.80
2024-01-16T18:26:52.131Z,-5.70
2024-01-16T18:29:23.942Z,-5.50
2024-01-16T18:31:51.698Z,-5.20
2024-01-16T18:34:22.393Z,-5.10
2024-01-16T18:36:56.845Z,-5.10
2024-01-16T18:39:26.788Z,-5.10
2024-01-16T18:41:54.971Z,-5.20
2024-01-16T18:44:22.692Z,-5.20
2024-01-16T18:46:50.252Z,-5.20
2024-01-16T18:49:18.154Z,-5.20
2024-01-16T18:51:45.994Z,-5.10
2024-01-16T18:54:13.484Z,-5.20
2024-01-16T18:56:41.088Z,-5.10
2024-01-16T18:59:08.609Z,-5.10
2024-01-16T19:01:38.207Z,-5.10
2024-01-16T19:04:05.947Z,-5.10
2024-01-16T19:06:33.558Z,-5.10
2024-01-16T19:09:01.170Z,-5.20
2024-01-16T19:11:28.756Z,-5.20
2024-01-16T19:13:56.276Z,-5.10
2024-01-16T19:16:24.627Z,-5.00
2024-01-16T19:18:52.292Z,-5.00
2024-01-16T19:21:19.881Z,-4.90
2024-01-16T19:23:48.388Z,-4.80
2024-01-16T19:26:16.078Z,-4.70
2024-01-16T19:28:43.765Z,-4.60
2024-01-16T19:31:11.563Z,-4.60
2024-01-16T19:33:40.394Z,-4.60
2024-01-16T19:36:08.460Z,-4.70
2024-01-16T19:38:37.081Z,-4.80
2024-01-16T19:41:04.929Z,-5.00
2024-01-16T19:43:32.596Z,-5.10
2024-01-16T19:46:01.282Z,-5.20
2024-01-16T19:48:28.907Z,-5.40
2024-01-16T19:50:56.767Z,-5.60
2024-01-16T19:53:25.608Z,-5.60
2024-01-16T19:55:56.396Z,-5.60
2024-01-16T19:58:23.948Z,-5.60
2024-01-16T20:00:51.541Z,-5.60
2024-01-16T20:03:20.017Z,-5.80
2024-01-16T20:05:47.721Z,-5.80
2024-01-16T20:08:15.293Z,-5.90
2024-01-16T20:10:42.995Z,-6.00
2024-01-16T20:13:10.565Z,-6.20
2024-01-16T20:15:38.024Z,-6.30
2024-01-16T20:18:10.100Z,-6.30
2024-01-16T20:20:37.894Z,-6.30
2024-01-16T20:23:05.940Z,-6.10
2024-01-16T20:25:33.510Z,-6.10
2024-01-16T20:28:05.045Z,-5.90
2024-01-16T20:30:34.529Z,-5.70
2024-01-16T20:33:02.269Z,-5.70
2024-01-16T20:35:29.905Z,-5.50
2024-01-16T20:37:57.632Z,-5.50
2024-01-16T20:40:25.547Z,-5.40
2024-01-16T20:42:53.011Z,-5.40
2024-01-16T20:45:21.842Z,-5.40
2024-01-16T20:47:49.441Z,-5.40
2024-01-16T20:50:17.030Z,-5.40
2024-01-16T20:52:44.546Z,-5.40
2024-01-16T20:55:12.232Z,-5.40
2024-01-16T20:57:39.805Z,-5.40
2024-01-16T21:00:14.653Z,-5.30
2024-01-16T21:02:44.231Z,-5.30
2024-01-16T21:05:12.244Z,-5.30
2024-01-16T21:07:40.160Z,-5.20
2024-01-16T21:10:08.159Z,-5.20
2024-01-16T21:12:35.715Z,-5.20
2024-01-16T21:15:03.545Z,-5.20
2024-01-16T21:17:31.235Z,-5.10
2024-01-16T21:19:58.821Z,-5.10
2024-01-16T21:22:33.406Z,-5.10
2024-01-16T21:25:06.389Z,-5.00
2024-01-16T21:27:34.629Z,-5.00
2024-01-16T21:30:02.887Z,-4.90
2024-01-16T21:32:30.789Z,-4.70
2024-01-16T21:34:58.501Z,-4.60
2024-01-16T21:37:26.438Z,-4.50
2024-01-16T21:39:54.427Z,-4.50
2024-01-16T21:42:22.086Z,-4.50
2024-01-16T21:44:52.993Z,-4.50
2024-01-16T21:47:22.300Z,-4.50
2024-01-16T21:49:52.439Z,-4.50
2024-01-16T21:52:21.774Z,-4.60
2024-01-16T21:54:50.227Z,-4.80
2024-01-16T21:57:17.711Z,-4.70
2024-01-16T21:59:45.377Z,-4.50
2024-01-16T22:02:14.730Z,-4.50
2024-01-16T22:04:42.506Z,-4.40
2024-01-16T22:07:10.153Z,-4.30
2024-01-16T22:09:38.368Z,-4.20
2024-01-16T22:12:07.807Z,-4.20
2024-01-16T22:14:37.559Z,-4.20
2024-01-16T22:17:05.807Z,-4.10
2024-01-16T22:19:33.458Z,-4.20
2024-01-16T22:22:00.951Z,-4.20
2024-01-16T22:24:28.443Z,-4.20
2024-01-16T22:26:56.077Z,-4.30
2024-01-16T22:29:23.587Z,-4.30
2024-01-16T22:31:51.121Z,-4.30
2024-01-16T22:34:19.456Z,-4.20
2024-01-16T22:36:47.230Z,-4.10
2024-01-16T22:39:20.715Z,-4.10
2024-01-16T22:41:50.099Z,-4.10
2024-01-16T22:44:18.255Z,-4.20
2024-01-16T22:46:46.166Z,-4.20
2024-01-16T22:49:13.805Z,-4.40
2024-01-16T22:51:41.369Z,-4.50
2024-01-16T22:54:09.076Z,-4.70
2024-01-16T22:56:36.755Z,-4.80
2024-01-16T22:59:05.624Z,-4.90
2024-01-16T23:01:33.124Z,-5.00
2024-01-16T23:04:02.604Z,-5.00
2024-01-16T23:06:30.334Z,-5.00
2024-01-16T23:09:00.731Z,-4.90
2024-01-16T23:11:28.606Z,-4.90
2024-01-16T23:13:56.140Z,-4.80
2024-01-16T23:16:23.705Z,-4.80
2024-01-16T23:18:51.518Z,-4.80
2024-01-16T23:21:19.997Z,-4.90
2024-01-16T23:24:43.959Z,-5.00
2024-01-16T23:27:12.229Z,-5.20
2024-01-16T23:29:39.834Z,-5.40
2024-01-16T23:32:08.599Z,-5.50
2024-01-16T23:34:38.458Z,-5.60
2024-01-16T23:37:06.768Z,-5.60
2024-01-16T23:39:35.836Z,-5.60
2024-01-16T23:42:03.514Z,-5.60
2024-01-16T23:44:31.160Z,-5.50
2024-01-16T23:46:58.645Z,-5.40
2024-01-16T23:49:26.518Z,-5.40
2024-01-16T23:51:53.996Z,-5.50
2024-01-16T23:54:21.584Z,-5.50
2024-01-16T23:56:49.143Z,-5.50
2024-01-16T23:59:16.616Z,-5.60
